sensor_id;sensor_type;location;lat;lon;timestamp;temperature;humidity
21214;DHT22;10764;50.850;2.904;2023-04-10T00:01:43;22.00;51.70
21214;DHT22;10764;50.850;2.904;2023-04-10T00:04:10;22.40;51.80
21214;DHT22;10764;50.850;2.904;2023-04-10T00:06:38;22.90;51.80
21214;DHT22;10764;50.850;2.904;2023-04-10T00:09:09;20.30;51.10
21214;DHT22;10764;50.850;2.904;2023-04-10T00:11:36;20.30;50.40
21214;DHT22;10764;50.850;2.904;2023-04-10T00:14:04;20.40;50.60
21214;DHT22;10764;50.850;2.904;2023-04-10T00:16:32;21.00;51.10
21214;DHT22;10764;50.850;2.904;2023-04-10T00:19:00;21.10;51.30
21214;DHT22;10764;50.850;2.904;2023-04-10T00:21:30;22.70;52.00
21214;DHT22;10764;50.850;2.904;2023-04-10T00:23:57;20.90;51.00
21214;DHT22;10764;50.850;2.904;2023-04-10T00:26:26;21.70;51.60
21214;DHT22;10764;50.850;2.904;2023-04-10T00:28:53;20.30;51.10
21214;DHT22;10764;50.850;2.904;2023-04-10T00:31:22;21.60;51.70
21214;DHT22;10764;50.850;2.904;2023-04-10T00:33:52;22.20;51.90
21214;DHT22;10764;50.850;2.904;2023-04-10T00:36:19;22.50;52.10
21214;DHT22;10764;50.850;2.904;2023-04-10T00:38:48;22.50;51.60
21214;DHT22;10764;50.850;2.904;2023-04-10T00:41:15;22.30;51.50
21214;DHT22;10764;50.850;2.904;2023-04-10T00:43:45;21.50;51.20
21214;DHT22;10764;50.850;2.904;2023-04-10T00:46:13;22.60;52.10
21214;DHT22;10764;50.850;2.904;2023-04-10T00:48:40;21.90;51.60
21214;DHT22;10764;50.850;2.904;2023-04-10T00:51:08;21.80;51.50
21214;DHT22;10764;50.850;2.904;2023-04-10T00:53:36;22.00;51.90
21214;DHT22;10764;50.850;2.904;2023-04-10T00:56:03;22.10;51.70
21214;DHT22;10764;50.850;2.904;2023-04-10T00:58:33;20.40;50.70
21214;DHT22;10764;50.850;2.904;2023-04-10T01:01:01;21.80;51.70
21214;DHT22;10764;50.850;2.904;2023-04-10T01:03:29;23.10;52.30
21214;DHT22;10764;50.850;2.904;2023-04-10T01:06:11;22.00;51.60
21214;DHT22;10764;50.850;2.904;2023-04-10T01:08:51;20.60;50.60
21214;DHT22;10764;50.850;2.904;2023-04-10T01:14:18;20.30;50.50
21214;DHT22;10764;50.850;2.904;2023-04-10T01:16:52;20.80;50.70
21214;DHT22;10764;50.850;2.904;2023-04-10T01:22:01;20.30;50.50
21214;DHT22;10764;50.850;2.904;2023-04-10T01:27:54;20.30;50.50
21214;DHT22;10764;50.850;2.904;2023-04-10T01:30:25;20.30;50.40
21214;DHT22;10764;50.850;2.904;2023-04-10T01:32:54;21.10;50.80
21214;DHT22;10764;50.850;2.904;2023-04-10T01:35:25;21.30;51.00
21214;DHT22;10764;50.850;2.904;2023-04-10T01:37:56;20.90;50.80
21214;DHT22;10764;50.850;2.904;2023-04-10T01:40:25;20.70;50.60
21214;DHT22;10764;50.850;2.904;2023-04-10T01:42:55;20.30;50.50
21214;DHT22;10764;50.850;2.904;2023-04-10T01:45:30;22.40;51.50
21214;DHT22;10764;50.850;2.904;2023-04-10T01:47:58;21.10;50.90
21214;DHT22;10764;50.850;2.904;2023-04-10T01:50:28;20.70;50.70
21214;DHT22;10764;50.850;2.904;2023-04-10T01:52:56;20.40;50.50
21214;DHT22;10764;50.850;2.904;2023-04-10T01:55:26;20.30;50.50
21214;DHT22;10764;50.850;2.904;2023-04-10T01:58:02;20.50;50.50
21214;DHT22;10764;50.850;2.904;2023-04-10T02:00:41;20.30;50.50
21214;DHT22;10764;50.850;2.904;2023-04-10T02:03:09;20.50;50.50
21214;DHT22;10764;50.850;2.904;2023-04-10T02:05:51;22.20;51.40
21214;DHT22;10764;50.850;2.904;2023-04-10T02:08:38;20.30;50.50
21214;DHT22;10764;50.850;2.904;2023-04-10T02:11:16;20.40;50.50
21214;DHT22;10764;50.850;2.904;2023-04-10T02:13:48;20.60;51.30
21214;DHT22;10764;50.850;2.904;2023-04-10T02:16:18;20.70;50.70
21214;DHT22;10764;50.850;2.904;2023-04-10T02:18:49;20.80;50.70
21214;DHT22;10764;50.850;2.904;2023-04-10T02:21:18;20.60;50.60
21214;DHT22;10764;50.850;2.904;2023-04-10T02:23:46;20.90;51.50
21214;DHT22;10764;50.850;2.904;2023-04-10T02:26:15;21.20;50.90
21214;DHT22;10764;50.850;2.904;2023-04-10T02:28:44;20.40;50.60
21214;DHT22;10764;50.850;2.904;2023-04-10T02:31:11;20.60;50.70
21214;DHT22;10764;50.850;2.904;2023-04-10T02:33:39;20.40;50.60
21214;DHT22;10764;50.850;2.904;2023-04-10T02:36:06;20.80;50.80
21214;DHT22;10764;50.850;2.904;2023-04-10T02:38:34;20.30;50.50
21214;DHT22;10764;50.850;2.904;2023-04-10T02:41:02;20.90;50.80
21214;DHT22;10764;50.850;2.904;2023-04-10T02:43:29;20.30;50.50
21214;DHT22;10764;50.850;2.904;2023-04-10T02:45:57;21.60;51.10
21214;DHT22;10764;50.850;2.904;2023-04-10T02:48:29;20.60;50.60
21214;DHT22;10764;50.850;2.904;2023-04-10T02:51:00;21.90;51.30
21214;DHT22;10764;50.850;2.904;2023-04-10T02:53:28;23.40;52.00
21214;DHT22;10764;50.850;2.904;2023-04-10T02:55:59;21.90;51.30
21214;DHT22;10764;50.850;2.904;2023-04-10T02:58:28;23.30;52.00
21214;DHT22;10764;50.850;2.904;2023-04-10T03:01:01;22.60;51.60
21214;DHT22;10764;50.850;2.904;2023-04-10T03:03:40;20.30;50.80
21214;DHT22;10764;50.850;2.904;2023-04-10T03:06:08;21.90;51.90
21214;DHT22;10764;50.850;2.904;2023-04-10T03:08:36;22.90;51.80
21214;DHT22;10764;50.850;2.904;2023-04-10T03:11:04;21.10;50.80
21214;DHT22;10764;50.850;2.904;2023-04-10T03:13:32;20.30;50.50
21214;DHT22;10764;50.850;2.904;2023-04-10T03:16:00;20.70;50.60
21214;DHT22;10764;50.850;2.904;2023-04-10T03:18:27;20.30;50.40
21214;DHT22;10764;50.850;2.904;2023-04-10T03:20:56;20.20;50.40
21214;DHT22;10764;50.850;2.904;2023-04-10T03:23:24;20.30;50.40
21214;DHT22;10764;50.850;2.904;2023-04-10T03:25:52;20.30;51.20
21214;DHT22;10764;50.850;2.904;2023-04-10T03:28:23;20.60;50.70
21214;DHT22;10764;50.850;2.904;2023-04-10T03:30:50;22.20;51.40
21214;DHT22;10764;50.850;2.904;2023-04-10T03:33:18;20.30;50.50
21214;DHT22;10764;50.850;2.904;2023-04-10T03:35:49;20.30;50.50
21214;DHT22;10764;50.850;2.904;2023-04-10T03:38:17;20.30;50.50
21214;DHT22;10764;50.850;2.904;2023-04-10T03:40:44;21.60;51.10
21214;DHT22;10764;50.850;2.904;2023-04-10T03:43:13;21.50;51.00
21214;DHT22;10764;50.850;2.904;2023-04-10T03:45:40;22.60;51.60
21214;DHT22;10764;50.850;2.904;2023-04-10T03:48:08;21.10;51.20
21214;DHT22;10764;50.850;2.904;2023-04-10T03:50:50;22.30;51.70
21214;DHT22;10764;50.850;2.904;2023-04-10T03:53:17;20.30;50.60
21214;DHT22;10764;50.850;2.904;2023-04-10T03:55:50;22.80;52.10
21214;DHT22;10764;50.850;2.904;2023-04-10T03:58:21;20.20;50.90
21214;DHT22;10764;50.850;2.904;2023-04-10T04:00:52;21.30;50.90
21214;DHT22;10764;50.850;2.904;2023-04-10T04:03:28;21.30;51.70
21214;DHT22;10764;50.850;2.904;2023-04-10T04:06:15;20.90;51.10
21214;DHT22;10764;50.850;2.904;2023-04-10T04:09:02;20.80;50.60
21214;DHT22;10764;50.850;2.904;2023-04-10T04:11:50;21.30;50.80
21214;DHT22;10764;50.850;2.904;2023-04-10T04:14:36;21.30;50.90
21214;DHT22;10764;50.850;2.904;2023-04-10T04:17:23;20.30;50.30
21214;DHT22;10764;50.850;2.904;2023-04-10T04:20:06;21.10;51.40
21214;DHT22;10764;50.850;2.904;2023-04-10T04:22:42;20.30;50.30
21214;DHT22;10764;50.850;2.904;2023-04-10T04:25:31;21.40;50.90
21214;DHT22;10764;50.850;2.904;2023-04-10T04:28:14;21.20;50.90
21214;DHT22;10764;50.850;2.904;2023-04-10T04:30:57;22.00;51.20
21214;DHT22;10764;50.850;2.904;2023-04-10T04:33:48;20.90;50.70
21214;DHT22;10764;50.850;2.904;2023-04-10T04:36:30;20.20;50.40
21214;DHT22;10764;50.850;2.904;2023-04-10T04:39:18;20.30;50.40
21214;DHT22;10764;50.850;2.904;2023-04-10T04:41:54;20.90;50.70
21214;DHT22;10764;50.850;2.904;2023-04-10T04:44:37;20.80;50.60
21214;DHT22;10764;50.850;2.904;2023-04-10T04:47:27;20.90;50.70
21214;DHT22;10764;50.850;2.904;2023-04-10T04:50:07;21.00;50.70
21214;DHT22;10764;50.850;2.904;2023-04-10T04:52:47;20.30;50.40
21214;DHT22;10764;50.850;2.904;2023-04-10T04:55:27;21.30;50.90
21214;DHT22;10764;50.850;2.904;2023-04-10T04:58:13;20.40;50.40
21214;DHT22;10764;50.850;2.904;2023-04-10T05:00:57;20.90;50.60
21214;DHT22;10764;50.850;2.904;2023-04-10T05:03:41;20.30;50.30
21214;DHT22;10764;50.850;2.904;2023-04-10T05:06:34;21.10;50.80
21214;DHT22;10764;50.850;2.904;2023-04-10T05:09:17;20.30;50.40
21214;DHT22;10764;50.850;2.904;2023-04-10T05:12:04;20.80;50.60
21214;DHT22;10764;50.850;2.904;2023-04-10T05:14:51;20.40;50.50
21214;DHT22;10764;50.850;2.904;2023-04-10T05:17:33;20.30;50.50
21214;DHT22;10764;50.850;2.904;2023-04-10T05:20:36;20.80;51.70
21214;DHT22;10764;50.850;2.904;2023-04-10T05:23:30;22.40;53.10
21214;DHT22;10764;50.850;2.904;2023-04-10T05:26:19;22.30;53.70
21214;DHT22;10764;50.850;2.904;2023-04-10T05:28:54;21.20;51.70
21214;DHT22;10764;50.850;2.904;2023-04-10T05:31:42;21.30;52.80
21214;DHT22;10764;50.850;2.904;2023-04-10T05:34:19;20.40;52.50
21214;DHT22;10764;50.850;2.904;2023-04-10T05:37:04;22.30;53.30
21214;DHT22;10764;50.850;2.904;2023-04-10T05:39:55;20.30;51.20
21214;DHT22;10764;50.850;2.904;2023-04-10T05:42:26;20.30;51.50
21214;DHT22;10764;50.850;2.904;2023-04-10T05:45:17;20.80;52.10
21214;DHT22;10764;50.850;2.904;2023-04-10T05:48:01;20.40;51.60
21214;DHT22;10764;50.850;2.904;2023-04-10T05:50:41;20.40;50.80
21214;DHT22;10764;50.850;2.904;2023-04-10T05:53:18;21.40;52.40
21214;DHT22;10764;50.850;2.904;2023-04-10T05:56:09;22.00;50.40
21214;DHT22;10764;50.850;2.904;2023-04-10T05:58:56;23.20;51.70
21214;DHT22;10764;50.850;2.904;2023-04-10T06:01:43;21.70;51.10
21214;DHT22;10764;50.850;2.904;2023-04-10T06:04:11;20.40;50.50
21214;DHT22;10764;50.850;2.904;2023-04-10T06:06:40;22.90;51.70
21214;DHT22;10764;50.850;2.904;2023-04-10T06:09:08;21.80;50.00
21214;DHT22;10764;50.850;2.904;2023-04-10T06:11:38;23.20;50.80
21214;DHT22;10764;50.850;2.904;2023-04-10T06:14:06;20.20;49.80
21214;DHT22;10764;50.850;2.904;2023-04-10T06:16:43;20.30;49.10
21214;DHT22;10764;50.850;2.904;2023-04-10T06:19:13;20.50;48.60
21214;DHT22;10764;50.850;2.904;2023-04-10T06:21:41;21.10;48.90
21214;DHT22;10764;50.850;2.904;2023-04-10T06:24:13;20.30;48.50
21214;DHT22;10764;50.850;2.904;2023-04-10T06:26:45;21.90;50.10
21214;DHT22;10764;50.850;2.904;2023-04-10T06:29:13;22.80;50.70
21214;DHT22;10764;50.850;2.904;2023-04-10T06:31:44;22.10;52.30
21214;DHT22;10764;50.850;2.904;2023-04-10T06:34:13;21.80;51.60
21214;DHT22;10764;50.850;2.904;2023-04-10T06:36:51;22.90;51.20
21214;DHT22;10764;50.850;2.904;2023-04-10T06:39:20;22.70;51.90
21214;DHT22;10764;50.850;2.904;2023-04-10T06:41:48;21.30;51.10
21214;DHT22;10764;50.850;2.904;2023-04-10T06:44:28;21.30;51.80
21214;DHT22;10764;50.850;2.904;2023-04-10T06:46:59;22.00;51.70
21214;DHT22;10764;50.850;2.904;2023-04-10T06:49:27;20.30;50.60
21214;DHT22;10764;50.850;2.904;2023-04-10T06:51:56;22.60;51.30
21214;DHT22;10764;50.850;2.904;2023-04-10T06:54:25;20.00;50.40
21214;DHT22;10764;50.850;2.904;2023-04-10T06:56:53;21.00;51.20
21214;DHT22;10764;50.850;2.904;2023-04-10T06:59:24;21.90;49.80
21214;DHT22;10764;50.850;2.904;2023-04-10T07:01:52;22.30;50.10
21214;DHT22;10764;50.850;2.904;2023-04-10T07:04:19;21.80;49.60
21214;DHT22;10764;50.850;2.904;2023-04-10T07:06:47;21.10;49.10
21214;DHT22;10764;50.850;2.904;2023-04-10T07:09:16;21.30;49.30
21214;DHT22;10764;50.850;2.904;2023-04-10T07:11:44;22.80;50.20
21214;DHT22;10764;50.850;2.904;2023-04-10T07:14:11;22.40;49.80
21214;DHT22;10764;50.850;2.904;2023-04-10T07:16:38;22.60;50.20
21214;DHT22;10764;50.850;2.904;2023-04-10T07:19:05;22.00;49.90
21214;DHT22;10764;50.850;2.904;2023-04-10T07:21:33;23.20;52.10
21214;DHT22;10764;50.850;2.904;2023-04-10T07:24:03;23.20;50.80
21214;DHT22;10764;50.850;2.904;2023-04-10T07:26:30;20.30;50.60
21214;DHT22;10764;50.850;2.904;2023-04-10T07:28:58;20.30;50.40
21214;DHT22;10764;50.850;2.904;2023-04-10T07:31:26;22.70;50.80
21214;DHT22;10764;50.850;2.904;2023-04-10T07:33:54;22.80;51.40
21214;DHT22;10764;50.850;2.904;2023-04-10T07:36:21;22.10;50.70
21214;DHT22;10764;50.850;2.904;2023-04-10T07:38:49;20.70;50.00
21214;DHT22;10764;50.850;2.904;2023-04-10T07:41:16;20.50;49.70
21214;DHT22;10764;50.850;2.904;2023-04-10T07:43:43;23.30;51.20
21214;DHT22;10764;50.850;2.904;2023-04-10T07:46:12;21.90;50.30
21214;DHT22;10764;50.850;2.904;2023-04-10T07:48:39;22.40;50.80
21214;DHT22;10764;50.850;2.904;2023-04-10T07:51:07;22.90;51.40
21214;DHT22;10764;50.850;2.904;2023-04-10T07:53:38;20.90;49.40
21214;DHT22;10764;50.850;2.904;2023-04-10T07:56:05;22.00;50.80
21214;DHT22;10764;50.850;2.904;2023-04-10T07:58:32;20.40;49.40
21214;DHT22;10764;50.850;2.904;2023-04-10T08:00:59;22.00;49.50
21214;DHT22;10764;50.850;2.904;2023-04-10T08:03:27;20.40;48.20
21214;DHT22;10764;50.850;2.904;2023-04-10T08:05:54;20.40;48.00
21214;DHT22;10764;50.850;2.904;2023-04-10T08:08:21;21.40;48.30
21214;DHT22;10764;50.850;2.904;2023-04-10T08:10:48;20.80;47.90
21214;DHT22;10764;50.850;2.904;2023-04-10T08:13:14;20.40;47.60
21214;DHT22;10764;50.850;2.904;2023-04-10T08:15:41;20.80;47.60
21214;DHT22;10764;50.850;2.904;2023-04-10T08:18:08;20.40;47.20
21214;DHT22;10764;50.850;2.904;2023-04-10T08:20:35;22.10;48.00
21214;DHT22;10764;50.850;2.904;2023-04-10T08:23:02;21.70;47.60
21214;DHT22;10764;50.850;2.904;2023-04-10T08:25:45;20.40;46.80
21214;DHT22;10764;50.850;2.904;2023-04-10T08:28:12;20.90;47.00
21214;DHT22;10764;50.850;2.904;2023-04-10T08:30:39;20.70;46.80
21214;DHT22;10764;50.850;2.904;2023-04-10T08:33:06;20.30;46.50
21214;DHT22;10764;50.850;2.904;2023-04-10T08:35:32;20.30;46.40
21214;DHT22;10764;50.850;2.904;2023-04-10T08:38:01;21.10;46.80
21214;DHT22;10764;50.850;2.904;2023-04-10T08:40:40;21.90;47.00
21214;DHT22;10764;50.850;2.904;2023-04-10T08:43:07;20.40;46.30
21214;DHT22;10764;50.850;2.904;2023-04-10T08:45:34;21.20;46.60
21214;DHT22;10764;50.850;2.904;2023-04-10T08:48:02;21.60;46.80
21214;DHT22;10764;50.850;2.904;2023-04-10T08:50:33;21.50;46.60
21214;DHT22;10764;50.850;2.904;2023-04-10T08:53:10;20.90;46.30
21214;DHT22;10764;50.850;2.904;2023-04-10T08:55:38;20.90;46.30
21214;DHT22;10764;50.850;2.904;2023-04-10T08:58:05;22.40;47.10
21214;DHT22;10764;50.850;2.904;2023-04-10T09:00:33;22.90;47.40
21214;DHT22;10764;50.850;2.904;2023-04-10T09:03:00;21.20;46.60
21214;DHT22;10764;50.850;2.904;2023-04-10T09:05:30;21.10;46.50
21214;DHT22;10764;50.850;2.904;2023-04-10T09:07:57;21.10;46.60
21214;DHT22;10764;50.850;2.904;2023-04-10T09:10:24;20.50;46.30
21214;DHT22;10764;50.850;2.904;2023-04-10T09:12:51;22.20;47.20
21214;DHT22;10764;50.850;2.904;2023-04-10T09:15:18;18.50;45.40
21214;DHT22;10764;50.850;2.904;2023-04-10T09:18:01;20.80;46.50
21214;DHT22;10764;50.850;2.904;2023-04-10T09:20:30;20.50;46.40
21214;DHT22;10764;50.850;2.904;2023-04-10T09:22:57;20.50;46.50
21214;DHT22;10764;50.850;2.904;2023-04-10T09:25:36;20.50;46.50
21214;DHT22;10764;50.850;2.904;2023-04-10T09:28:08;20.40;46.50
21214;DHT22;10764;50.850;2.904;2023-04-10T09:30:40;20.50;46.60
21214;DHT22;10764;50.850;2.904;2023-04-10T09:33:25;20.50;46.60
21214;DHT22;10764;50.850;2.904;2023-04-10T09:35:57;20.50;46.70
21214;DHT22;10764;50.850;2.904;2023-04-10T09:38:26;20.90;47.00
21214;DHT22;10764;50.850;2.904;2023-04-10T09:41:05;20.80;47.00
21214;DHT22;10764;50.850;2.904;2023-04-10T09:43:33;20.50;46.90
21214;DHT22;10764;50.850;2.904;2023-04-10T09:46:01;20.50;46.90
21214;DHT22;10764;50.850;2.904;2023-04-10T09:48:27;20.50;47.00
21214;DHT22;10764;50.850;2.904;2023-04-10T09:50:54;21.40;47.40
21214;DHT22;10764;50.850;2.904;2023-04-10T09:53:22;21.50;47.40
21214;DHT22;10764;50.850;2.904;2023-04-10T09:55:50;20.80;47.20
21214;DHT22;10764;50.850;2.904;2023-04-10T09:58:16;20.70;47.10
21214;DHT22;10764;50.850;2.904;2023-04-10T10:00:46;21.70;47.60
21214;DHT22;10764;50.850;2.904;2023-04-10T10:03:18;20.90;47.20
21214;DHT22;10764;50.850;2.904;2023-04-10T10:05:50;20.50;47.00
21214;DHT22;10764;50.850;2.904;2023-04-10T10:08:17;20.50;47.10
21214;DHT22;10764;50.850;2.904;2023-04-10T10:10:47;20.80;47.20
21214;DHT22;10764;50.850;2.904;2023-04-10T10:13:23;20.50;47.10
21214;DHT22;10764;50.850;2.904;2023-04-10T10:18:42;20.50;47.90
21214;DHT22;10764;50.850;2.904;2023-04-10T10:21:12;20.50;47.20
21214;DHT22;10764;50.850;2.904;2023-04-10T10:23:40;20.50;47.30
21214;DHT22;10764;50.850;2.904;2023-04-10T10:26:09;20.50;47.30
21214;DHT22;10764;50.850;2.904;2023-04-10T10:28:36;22.30;48.30
21214;DHT22;10764;50.850;2.904;2023-04-10T10:31:06;21.30;47.80
21214;DHT22;10764;50.850;2.904;2023-04-10T10:33:35;20.70;47.60
21214;DHT22;10764;50.850;2.904;2023-04-10T10:36:03;20.70;47.70
21214;DHT22;10764;50.850;2.904;2023-04-10T10:38:31;20.50;47.80
21214;DHT22;10764;50.850;2.904;2023-04-10T10:41:24;21.30;48.30
21214;DHT22;10764;50.850;2.904;2023-04-10T10:44:18;20.50;48.10
21214;DHT22;10764;50.850;2.904;2023-04-10T10:47:17;20.50;48.40
21214;DHT22;10764;50.850;2.904;2023-04-10T10:49:57;20.50;48.60
21214;DHT22;10764;50.850;2.904;2023-04-10T10:57:54;21.30;49.60
21214;DHT22;10764;50.850;2.904;2023-04-10T11:00:22;20.70;49.40
21214;DHT22;10764;50.850;2.904;2023-04-10T11:05:55;20.80;50.20
21214;DHT22;10764;50.850;2.904;2023-04-10T11:08:37;20.50;49.60
21214;DHT22;10764;50.850;2.904;2023-04-10T11:11:55;19.50;49.70
21214;DHT22;10764;50.850;2.904;2023-04-10T11:14:24;22.70;51.00
21214;DHT22;10764;50.850;2.904;2023-04-10T11:16:53;21.80;50.90
21214;DHT22;10764;50.850;2.904;2023-04-10T11:19:21;22.50;51.60
21214;DHT22;10764;50.850;2.904;2023-04-10T11:22:05;22.60;51.80
21214;DHT22;10764;50.850;2.904;2023-04-10T11:24:56;22.30;50.60
21214;DHT22;10764;50.850;2.904;2023-04-10T11:27:44;22.90;51.20
21214;DHT22;10764;50.850;2.904;2023-04-10T11:30:29;20.60;49.70
21214;DHT22;10764;50.850;2.904;2023-04-10T11:32:57;21.60;50.40
21214;DHT22;10764;50.850;2.904;2023-04-10T11:35:25;20.80;50.10
21214;DHT22;10764;50.850;2.904;2023-04-10T11:38:14;20.50;50.90
21214;DHT22;10764;50.850;2.904;2023-04-10T11:40:59;20.50;49.60
21214;DHT22;10764;50.850;2.904;2023-04-10T11:43:27;23.40;51.60
21214;DHT22;10764;50.850;2.904;2023-04-10T11:46:04;21.70;51.70
21214;DHT22;10764;50.850;2.904;2023-04-10T11:48:35;20.50;49.70
21214;DHT22;10764;50.850;2.904;2023-04-10T11:51:10;21.50;50.90
21214;DHT22;10764;50.850;2.904;2023-04-10T11:53:39;20.50;50.50
21214;DHT22;10764;50.850;2.904;2023-04-10T11:56:17;20.70;50.70
21214;DHT22;10764;50.850;2.904;2023-04-10T11:58:50;23.00;51.40
21214;DHT22;10764;50.850;2.904;2023-04-10T12:01:22;21.30;51.20
21214;DHT22;10764;50.850;2.904;2023-04-10T12:03:50;21.90;52.30
21214;DHT22;10764;50.850;2.904;2023-04-10T12:06:19;20.50;51.20
21214;DHT22;10764;50.850;2.904;2023-04-10T12:08:48;23.10;51.70
21214;DHT22;10764;50.850;2.904;2023-04-10T12:11:18;20.50;50.70
21214;DHT22;10764;50.850;2.904;2023-04-10T12:13:46;21.50;50.60
21214;DHT22;10764;50.850;2.904;2023-04-10T12:16:13;22.80;51.20
21214;DHT22;10764;50.850;2.904;2023-04-10T12:18:41;22.60;51.30
21214;DHT22;10764;50.850;2.904;2023-04-10T12:21:08;20.60;51.10
21214;DHT22;10764;50.850;2.904;2023-04-10T12:23:36;20.70;50.60
21214;DHT22;10764;50.850;2.904;2023-04-10T12:26:17;22.00;51.30
21214;DHT22;10764;50.850;2.904;2023-04-10T12:28:55;20.60;50.70
21214;DHT22;10764;50.850;2.904;2023-04-10T12:31:32;21.00;50.90
21214;DHT22;10764;50.850;2.904;2023-04-10T12:34:01;21.10;51.10
21214;DHT22;10764;50.850;2.904;2023-04-10T12:36:29;21.20;51.10
21214;DHT22;10764;50.850;2.904;2023-04-10T12:38:59;21.00;51.00
21214;DHT22;10764;50.850;2.904;2023-04-10T12:41:30;21.40;51.10
21214;DHT22;10764;50.850;2.904;2023-04-10T12:44:11;20.60;50.60
21214;DHT22;10764;50.850;2.904;2023-04-10T12:46:39;20.60;50.60
21214;DHT22;10764;50.850;2.904;2023-04-10T12:49:14;21.60;51.10
21214;DHT22;10764;50.850;2.904;2023-04-10T12:51:49;20.60;50.60
21214;DHT22;10764;50.850;2.904;2023-04-10T12:54:29;20.50;50.60
21214;DHT22;10764;50.850;2.904;2023-04-10T12:56:57;20.60;50.60
21214;DHT22;10764;50.850;2.904;2023-04-10T12:59:25;20.60;50.70
21214;DHT22;10764;50.850;2.904;2023-04-10T13:01:53;20.50;50.60
21214;DHT22;10764;50.850;2.904;2023-04-10T13:04:20;20.90;50.90
21214;DHT22;10764;50.850;2.904;2023-04-10T13:06:48;22.10;51.50
21214;DHT22;10764;50.850;2.904;2023-04-10T13:09:18;20.50;51.50
21214;DHT22;10764;50.850;2.904;2023-04-10T13:11:44;21.20;51.20
21214;DHT22;10764;50.850;2.904;2023-04-10T13:14:14;20.50;50.90
21214;DHT22;10764;50.850;2.904;2023-04-10T13:16:41;20.60;51.00
21214;DHT22;10764;50.850;2.904;2023-04-10T13:19:08;21.30;51.40
21214;DHT22;10764;50.850;2.904;2023-04-10T13:21:35;21.90;51.70
21214;DHT22;10764;50.850;2.904;2023-04-10T13:24:01;21.10;51.30
21214;DHT22;10764;50.850;2.904;2023-04-10T13:26:28;20.50;51.00
21214;DHT22;10764;50.850;2.904;2023-04-10T13:28:55;21.40;51.50
21214;DHT22;10764;50.850;2.904;2023-04-10T13:31:22;22.00;51.80
21214;DHT22;10764;50.850;2.904;2023-04-10T13:33:49;21.70;51.70
21214;DHT22;10764;50.850;2.904;2023-04-10T13:36:16;21.00;51.40
21214;DHT22;10764;50.850;2.904;2023-04-10T13:38:43;20.90;51.40
21214;DHT22;10764;50.850;2.904;2023-04-10T13:41:10;22.30;52.10
21214;DHT22;10764;50.850;2.904;2023-04-10T13:43:37;21.10;51.50
21214;DHT22;10764;50.850;2.904;2023-04-10T13:46:04;21.30;51.70
21214;DHT22;10764;50.850;2.904;2023-04-10T13:48:32;20.50;51.30
21214;DHT22;10764;50.850;2.904;2023-04-10T13:51:09;20.40;51.30
21214;DHT22;10764;50.850;2.904;2023-04-10T13:53:35;20.50;51.40
21214;DHT22;10764;50.850;2.904;2023-04-10T13:56:02;21.50;51.90
21214;DHT22;10764;50.850;2.904;2023-04-10T13:58:29;20.40;51.40
21214;DHT22;10764;50.850;2.904;2023-04-10T14:00:57;20.50;51.40
21214;DHT22;10764;50.850;2.904;2023-04-10T14:03:24;20.70;51.60
21214;DHT22;10764;50.850;2.904;2023-04-10T14:05:52;20.70;51.60
21214;DHT22;10764;50.850;2.904;2023-04-10T14:08:19;20.60;51.60
21214;DHT22;10764;50.850;2.904;2023-04-10T14:10:46;20.40;51.50
21214;DHT22;10764;50.850;2.904;2023-04-10T14:13:19;21.40;52.00
21214;DHT22;10764;50.850;2.904;2023-04-10T14:15:46;21.60;52.20
21214;DHT22;10764;50.850;2.904;2023-04-10T14:18:13;23.10;53.00
21214;DHT22;10764;50.850;2.904;2023-04-10T14:20:44;23.30;54.00
21214;DHT22;10764;50.850;2.904;2023-04-10T14:23:12;22.70;53.40
21214;DHT22;10764;50.850;2.904;2023-04-10T14:25:48;22.40;53.10
21214;DHT22;10764;50.850;2.904;2023-04-10T14:28:16;22.60;53.10
21214;DHT22;10764;50.850;2.904;2023-04-10T14:30:48;18.20;51.90
21214;DHT22;10764;50.850;2.904;2023-04-10T14:33:16;22.70;53.00
21214;DHT22;10764;50.850;2.904;2023-04-10T14:35:47;20.50;52.00
21214;DHT22;10764;50.850;2.904;2023-04-10T14:38:14;20.60;52.80
21214;DHT22;10764;50.850;2.904;2023-04-10T14:40:43;20.70;52.20
21214;DHT22;10764;50.850;2.904;2023-04-10T14:43:15;20.50;52.30
21214;DHT22;10764;50.850;2.904;2023-04-10T14:45:42;20.70;52.20
21214;DHT22;10764;50.850;2.904;2023-04-10T14:48:09;22.80;53.90
21214;DHT22;10764;50.850;2.904;2023-04-10T14:50:41;21.50;52.80
21214;DHT22;10764;50.850;2.904;2023-04-10T14:53:09;22.60;53.40
21214;DHT22;10764;50.850;2.904;2023-04-10T14:55:36;22.30;53.20
21214;DHT22;10764;50.850;2.904;2023-04-10T14:58:03;23.10;53.80
21214;DHT22;10764;50.850;2.904;2023-04-10T15:00:34;20.50;52.30
21214;DHT22;10764;50.850;2.904;2023-04-10T15:03:01;22.50;53.50
21214;DHT22;10764;50.850;2.904;2023-04-10T15:05:32;20.50;52.20
21214;DHT22;10764;50.850;2.904;2023-04-10T15:07:59;21.80;52.90
21214;DHT22;10764;50.850;2.904;2023-04-10T15:10:30;21.30;52.40
21214;DHT22;10764;50.850;2.904;2023-04-10T15:13:00;21.10;53.00
21214;DHT22;10764;50.850;2.904;2023-04-10T15:15:28;21.60;52.70
21214;DHT22;10764;50.850;2.904;2023-04-10T15:17:55;22.20;53.40
21214;DHT22;10764;50.850;2.904;2023-04-10T15:20:28;21.50;53.50
21214;DHT22;10764;50.850;2.904;2023-04-10T15:22:56;22.80;53.90
21214;DHT22;10764;50.850;2.904;2023-04-10T15:25:26;23.00;53.40
21214;DHT22;10764;50.850;2.904;2023-04-10T15:27:54;21.20;52.70
21214;DHT22;10764;50.850;2.904;2023-04-10T15:30:21;22.50;53.10
21214;DHT22;10764;50.850;2.904;2023-04-10T15:32:48;20.50;52.80
21214;DHT22;10764;50.850;2.904;2023-04-10T15:35:15;20.50;52.20
21214;DHT22;10764;50.850;2.904;2023-04-10T15:37:42;21.10;52.40
21214;DHT22;10764;50.850;2.904;2023-04-10T15:40:10;22.70;53.20
21214;DHT22;10764;50.850;2.904;2023-04-10T15:42:37;20.50;52.20
21214;DHT22;10764;50.850;2.904;2023-04-10T15:45:05;21.30;52.90
21214;DHT22;10764;50.850;2.904;2023-04-10T15:47:34;20.50;53.20
21214;DHT22;10764;50.850;2.904;2023-04-10T15:50:01;20.50;51.90
21214;DHT22;10764;50.850;2.904;2023-04-10T15:52:30;21.90;53.70
21214;DHT22;10764;50.850;2.904;2023-04-10T15:55:00;22.10;53.20
21214;DHT22;10764;50.850;2.904;2023-04-10T15:57:30;22.50;53.40
21214;DHT22;10764;50.850;2.904;2023-04-10T15:59:58;22.80;53.60
21214;DHT22;10764;50.850;2.904;2023-04-10T16:02:29;21.40;52.80
21214;DHT22;10764;50.850;2.904;2023-04-10T16:04:58;22.10;53.30
21214;DHT22;10764;50.850;2.904;2023-04-10T16:07:26;22.50;53.20
21214;DHT22;10764;50.850;2.904;2023-04-10T16:09:54;21.40;52.50
21214;DHT22;10764;50.850;2.904;2023-04-10T16:12:23;22.40;53.00
21214;DHT22;10764;50.850;2.904;2023-04-10T16:14:51;20.40;52.40
21214;DHT22;10764;50.850;2.904;2023-04-10T16:17:19;20.60;53.10
21214;DHT22;10764;50.850;2.904;2023-04-10T16:19:48;19.50;52.00